Aviation Digital Data Service (ADDS)

Output produced by METARs form (0154 UTC 26 September 2016)
found at http://aviationweather.gov/adds/metars/
 
KBDR 252330Z 2600/2624 03005KT P6SM SKC 
     FM261500 13007KT P6SM FEW200 
     FM261800 17010KT P6SM SCT050 SCT200